Time,TemperatureF,DewpointF,PressureIn,WindDirection,WindDirectionDegrees,WindSpeedMPH,WindSpeedGustMPH,Humidity,HourlyPrecipIn,Conditions,Clouds,dailyrainin,SolarRadiationWatts/m^2,SoftwareType,DateUTC
2014-08-29 00:04:00,81.0,78.0,-100.00,SSW,207,1.0,4.0,91,0.00,,,0.00,0.000000,,2014-08-29 04:04:00,
2014-08-29 00:13:00,81.0,78.0,-100.00,SSW,207,1.0,4.0,91,0.00,,,0.00,0.000000,,2014-08-29 04:13:00,
2014-08-29 01:04:00,80.0,77.0,-100.00,SE,129,3.0,5.0,91,0.00,,,-99.99,0.000000,,2014-08-29 05:04:00,
2014-08-29 01:42:00,79.0,77.0,-100.00,ESE,113,2.0,5.0,93,0.00,,,0.00,0.000000,,2014-08-29 05:42:00,
2014-08-29 01:53:00,79.0,77.0,-100.00,ESE,113,2.0,5.0,93,0.00,,,0.00,0.000000,,2014-08-29 05:53:00,
2014-08-29 02:42:00,79.0,77.0,-100.00,SE,145,1.0,4.0,93,0.00,,,0.00,0.000000,,2014-08-29 06:42:00,
2014-08-29 03:02:00,79.0,77.0,-100.00,SE,145,1.0,4.0,93,0.00,,,0.00,0.000000,,2014-08-29 07:02:00,
2014-08-29 03:52:00,79.0,77.0,-100.00,SE,144,1.0,4.0,94,0.00,,,0.00,0.000000,,2014-08-29 07:52:00,
2014-08-29 04:02:00,79.0,77.0,-100.00,SE,144,1.0,4.0,94,0.00,,,0.00,0.000000,,2014-08-29 08:02:00,
2014-08-29 04:12:00,79.0,77.0,-100.00,SE,144,1.0,4.0,94,0.00,,,0.00,0.000000,,2014-08-29 08:12:00,
2014-08-29 04:53:00,78.0,76.0,-100.00,WNW,299,1.0,3.0,95,0.00,,,0.00,0.000000,,2014-08-29 08:53:00,
2014-08-29 05:02:00,78.0,76.0,-100.00,WNW,299,1.0,3.0,95,0.00,,,0.00,0.000000,,2014-08-29 09:02:00,
2014-08-29 05:12:00,78.0,76.0,-100.00,WNW,299,1.0,3.0,95,0.00,,,0.00,0.000000,,2014-08-29 09:12:00,
2014-08-29 05:44:00,79.0,78.0,-100.00,North,-999,0.0,3.0,96,0.00,,,0.00,0.000000,,2014-08-29 09:44:00,
2014-08-29 05:54:00,79.0,78.0,-100.00,North,-999,0.0,3.0,96,0.00,,,0.00,0.000000,,2014-08-29 09:54:00,
2014-08-29 06:13:00,79.0,78.0,-100.00,North,-999,0.0,3.0,96,0.00,,,0.00,0.000000,,2014-08-29 10:13:00,
2014-08-29 06:42:00,78.0,76.0,-100.00,East,88,3.0,4.0,95,0.00,,,0.00,0.000000,,2014-08-29 10:42:00,
2014-08-29 06:54:00,78.0,76.0,-100.00,East,88,3.0,4.0,95,0.00,,,0.00,0.000000,,2014-08-29 10:54:00,
2014-08-29 07:03:00,78.0,76.0,-100.00,East,88,3.0,4.0,95,0.00,,,0.00,0.000000,,2014-08-29 11:03:00,
2014-08-29 07:13:00,78.0,76.0,-100.00,East,88,3.0,4.0,95,0.00,,,0.00,0.000000,,2014-08-29 11:13:00,
2014-08-29 07:43:00,78.0,77.0,-100.00,NE,52,3.0,4.0,96,0.00,,,0.00,3.000000,,2014-08-29 11:43:00,
2014-08-29 07:53:00,78.0,77.0,-100.00,NE,52,3.0,4.0,96,0.00,,,0.00,3.000000,,2014-08-29 11:53:00,
2014-08-29 09:02:00,84.0,79.0,-100.00,ENE,64,3.0,4.0,86,0.00,,,0.00,114.000000,,2014-08-29 13:02:00,
2014-08-29 09:42:00,88.0,78.0,-100.00,SE,135,6.0,9.0,73,0.00,,,0.00,298.000000,,2014-08-29 13:42:00,
2014-08-29 09:53:00,88.0,78.0,-100.00,SE,135,6.0,9.0,73,0.00,,,0.00,298.000000,,2014-08-29 13:53:00,
2014-08-29 10:02:00,88.0,78.0,-100.00,SE,135,6.0,9.0,73,0.00,,,0.00,298.000000,,2014-08-29 14:02:00,
2014-08-29 10:13:00,88.0,78.0,-100.00,SE,135,6.0,9.0,73,0.00,,,0.00,298.000000,,2014-08-29 14:13:00,
2014-08-29 10:43:00,87.0,77.0,-100.00,SE,142,5.0,12.0,73,0.00,,,0.00,360.000000,,2014-08-29 14:43:00,
2014-08-29 10:52:00,87.0,77.0,-100.00,SE,142,5.0,12.0,73,0.00,,,0.00,360.000000,,2014-08-29 14:52:00,
2014-08-29 11:03:00,87.0,77.0,-100.00,SE,142,5.0,12.0,73,0.00,,,0.00,360.000000,,2014-08-29 15:03:00,
2014-08-29 11:44:00,86.0,77.0,-100.00,SE,139,7.0,16.0,74,0.01,,,0.01,303.000000,,2014-08-29 15:44:00,
2014-08-29 11:54:00,86.0,77.0,-100.00,SE,139,7.0,16.0,74,0.01,,,0.01,303.000000,,2014-08-29 15:54:00,
2014-08-29 12:13:00,86.0,77.0,-100.00,SE,139,7.0,16.0,74,0.01,,,0.01,303.000000,,2014-08-29 16:13:00,
2014-08-29 12:44:00,89.0,77.0,-100.00,SSE,153,4.0,15.0,68,0.06,,,0.07,388.000000,,2014-08-29 16:44:00,
2014-08-29 13:03:00,89.0,77.0,-100.00,SSE,153,4.0,15.0,68,0.06,,,0.07,388.000000,,2014-08-29 17:03:00,
2014-08-29 13:43:00,92.0,76.0,-100.00,SE,126,10.0,17.0,60,0.00,,,0.07,647.000000,,2014-08-29 17:43:00,
2014-08-29 13:54:00,92.0,76.0,-100.00,SE,126,10.0,17.0,60,0.00,,,0.07,647.000000,,2014-08-29 17:54:00,
2014-08-29 14:03:00,92.0,76.0,-100.00,SE,126,10.0,17.0,60,0.00,,,0.07,647.000000,,2014-08-29 18:03:00,
2014-08-29 14:13:00,92.0,76.0,-100.00,SE,126,10.0,17.0,60,0.00,,,0.07,647.000000,,2014-08-29 18:13:00,
2014-08-29 15:02:00,92.0,75.0,-100.00,ESE,122,10.0,16.0,58,0.00,,,0.07,808.000000,,2014-08-29 19:02:00,
2014-08-29 15:43:00,92.0,75.0,-100.00,ESE,122,9.0,17.0,57,0.00,,,0.07,840.000000,,2014-08-29 19:43:00,
2014-08-29 15:54:00,92.0,75.0,-100.00,ESE,122,9.0,17.0,57,0.00,,,0.07,840.000000,,2014-08-29 19:54:00,
2014-08-29 16:02:00,92.0,75.0,-100.00,ESE,122,9.0,17.0,57,0.00,,,0.07,840.000000,,2014-08-29 20:02:00,
2014-08-29 16:12:00,92.0,75.0,-100.00,ESE,122,9.0,17.0,57,0.00,,,0.07,840.000000,,2014-08-29 20:12:00,
2014-08-29 16:43:00,92.0,75.0,-100.00,ESE,104,9.0,17.0,58,0.00,,,0.07,719.000000,,2014-08-29 20:43:00,
2014-08-29 16:53:00,92.0,75.0,-100.00,ESE,104,9.0,17.0,58,0.00,,,0.07,719.000000,,2014-08-29 20:53:00,
2014-08-29 17:02:00,92.0,75.0,-100.00,ESE,104,9.0,17.0,58,0.00,,,0.07,719.000000,,2014-08-29 21:02:00,
2014-08-29 17:44:00,91.0,76.0,-100.00,SE,127,9.0,16.0,61,0.00,,,0.07,555.000000,,2014-08-29 21:44:00,
2014-08-29 17:55:00,91.0,76.0,-100.00,SE,127,9.0,16.0,61,0.00,,,0.07,555.000000,,2014-08-29 21:55:00,
2014-08-29 18:04:00,91.0,76.0,-100.00,SE,127,9.0,16.0,61,0.00,,,0.07,555.000000,,2014-08-29 22:04:00,
2014-08-29 18:13:00,91.0,76.0,-100.00,SE,127,9.0,16.0,61,0.00,,,0.07,555.000000,,2014-08-29 22:13:00,
2014-08-29 18:43:00,90.0,75.0,-100.00,ESE,123,9.0,13.0,62,0.00,,,0.07,299.000000,,2014-08-29 22:43:00,
2014-08-29 18:54:00,90.0,75.0,-100.00,ESE,123,9.0,13.0,62,0.00,,,0.07,299.000000,,2014-08-29 22:54:00,
2014-08-29 19:03:00,90.0,75.0,-100.00,ESE,123,9.0,13.0,62,0.00,,,0.07,299.000000,,2014-08-29 23:03:00,
2014-08-29 19:44:00,86.0,76.0,-100.00,SE,128,6.0,13.0,73,0.00,,,0.07,69.000000,,2014-08-29 23:44:00,
2014-08-29 20:12:00,86.0,76.0,-100.00,SE,128,6.0,13.0,73,0.00,,,0.07,69.000000,,2014-08-30 00:12:00,
2014-08-29 20:43:00,84.0,78.0,-100.00,ESE,109,3.0,8.0,83,0.00,,,0.07,4.000000,,2014-08-30 00:43:00,
2014-08-29 20:52:00,84.0,78.0,-100.00,ESE,109,3.0,8.0,83,0.00,,,0.07,4.000000,,2014-08-30 00:52:00,
2014-08-29 21:03:00,84.0,78.0,-100.00,ESE,109,3.0,8.0,83,0.00,,,0.07,4.000000,,2014-08-30 01:03:00,
2014-08-29 21:53:00,83.0,79.0,-100.00,East,99,2.0,5.0,88,0.00,,,0.07,0.000000,,2014-08-30 01:53:00,
2014-08-29 22:03:00,83.0,79.0,-100.00,East,99,2.0,5.0,88,0.00,,,0.07,0.000000,,2014-08-30 02:03:00,
2014-08-29 22:12:00,83.0,79.0,-100.00,East,99,2.0,5.0,88,0.00,,,0.07,0.000000,,2014-08-30 02:12:00,